Partly Cloudy Current Weather (METAR) For Bournemouth Airport

All times on the weather descriptions are local

Observed at 09:50 - (16 mins ago)

Partly Cloudy

15°C

Partly Cloudy
Clouds: Scattered Clouds at 2,000ft
Wind: 050° at 08 knots
Visibility: Greater than 10km
QNH: 1023
Dew Point: 12°C
Runway in Use: Runway 08

Sunrise Today: 06:21
Sunset Today: 19:51

Forecast Weather (TAF) For Bournemouth Airport

Issued at 01:00 - (28 days ago)


Runway in Use: Unable to determine, wind is clam

Forecast valid until 01:00 on Tuesday

METAR/TAF RAW METAR / TAF

EGHH 020850Z 05008KT 9999 SCT020 15/12 Q1023

Weather Widget

Put weather from any of our airports on your website with our weather widget.

Find Another Search

Airport Search


Please Wait Please Wait - Loading
Close
Close

Login

Username:

Password:

Remember Me:

Remember me on this computer

Forgotten your password? Get a reset password sent to your registered e-mail address

Close

User Private Message

Subject:

Message: